sensor_id;sensor_type;location;lat;lon;timestamp;temperature;humidity
439;DHT22;206;48.782;9.252;2023-07-30T00:01:24;20.90;88.00
439;DHT22;206;48.782;9.252;2023-07-30T00:03:50;20.90;88.20
439;DHT22;206;48.782;9.252;2023-07-30T00:06:15;20.90;85.60
439;DHT22;206;48.782;9.252;2023-07-30T00:08:41;20.90;87.60
439;DHT22;206;48.782;9.252;2023-07-30T00:11:06;20.80;86.00
439;DHT22;206;48.782;9.252;2023-07-30T00:13:32;20.60;86.30
439;DHT22;206;48.782;9.252;2023-07-30T00:15:57;20.70;83.90
439;DHT22;206;48.782;9.252;2023-07-30T00:18:23;20.70;83.10
439;DHT22;206;48.782;9.252;2023-07-30T00:20:49;20.80;84.30
439;DHT22;206;48.782;9.252;2023-07-30T00:23:14;20.80;84.10
439;DHT22;206;48.782;9.252;2023-07-30T00:25:40;20.80;85.40
439;DHT22;206;48.782;9.252;2023-07-30T00:28:05;20.80;86.80
439;DHT22;206;48.782;9.252;2023-07-30T00:30:31;20.80;88.80
439;DHT22;206;48.782;9.252;2023-07-30T00:32:56;20.80;83.60
439;DHT22;206;48.782;9.252;2023-07-30T00:35:22;20.80;87.70
439;DHT22;206;48.782;9.252;2023-07-30T00:37:48;20.80;88.00
439;DHT22;206;48.782;9.252;2023-07-30T00:40:13;20.80;88.30
439;DHT22;206;48.782;9.252;2023-07-30T00:42:39;20.90;86.80
439;DHT22;206;48.782;9.252;2023-07-30T00:45:05;20.90;85.70
439;DHT22;206;48.782;9.252;2023-07-30T00:47:31;20.90;84.10
439;DHT22;206;48.782;9.252;2023-07-30T00:49:57;20.90;82.00
439;DHT22;206;48.782;9.252;2023-07-30T00:52:23;20.90;81.40
439;DHT22;206;48.782;9.252;2023-07-30T00:54:49;20.80;83.20
439;DHT22;206;48.782;9.252;2023-07-30T00:57:18;20.70;83.10
439;DHT22;206;48.782;9.252;2023-07-30T00:59:44;20.70;84.70
439;DHT22;206;48.782;9.252;2023-07-30T01:02:10;20.70;85.10
439;DHT22;206;48.782;9.252;2023-07-30T01:04:36;20.60;85.10
439;DHT22;206;48.782;9.252;2023-07-30T01:07:05;20.50;85.00
439;DHT22;206;48.782;9.252;2023-07-30T01:09:31;20.40;86.10
439;DHT22;206;48.782;9.252;2023-07-30T01:11:58;20.40;86.90
439;DHT22;206;48.782;9.252;2023-07-30T01:14:24;20.50;86.40
439;DHT22;206;48.782;9.252;2023-07-30T01:16:52;20.60;83.10
439;DHT22;206;48.782;9.252;2023-07-30T01:19:18;20.60;83.00
439;DHT22;206;48.782;9.252;2023-07-30T01:21:44;20.50;84.90
439;DHT22;206;48.782;9.252;2023-07-30T01:24:09;20.50;86.00
439;DHT22;206;48.782;9.252;2023-07-30T01:29:09;20.60;84.70
439;DHT22;206;48.782;9.252;2023-07-30T01:31:36;20.60;86.70
439;DHT22;206;48.782;9.252;2023-07-30T01:34:04;20.60;87.80
439;DHT22;206;48.782;9.252;2023-07-30T01:36:32;20.60;89.30
439;DHT22;206;48.782;9.252;2023-07-30T01:38:59;20.50;89.10
439;DHT22;206;48.782;9.252;2023-07-30T01:41:25;20.50;89.30
439;DHT22;206;48.782;9.252;2023-07-30T01:43:50;20.50;89.90
439;DHT22;206;48.782;9.252;2023-07-30T01:46:16;20.50;90.10
439;DHT22;206;48.782;9.252;2023-07-30T01:48:41;20.60;89.40
439;DHT22;206;48.782;9.252;2023-07-30T01:51:07;20.70;88.80
439;DHT22;206;48.782;9.252;2023-07-30T01:53:32;20.80;87.00
439;DHT22;206;48.782;9.252;2023-07-30T01:55:58;20.80;86.70
439;DHT22;206;48.782;9.252;2023-07-30T01:58:23;20.80;86.60
439;DHT22;206;48.782;9.252;2023-07-30T02:00:49;20.80;87.30
439;DHT22;206;48.782;9.252;2023-07-30T02:03:15;20.90;86.40
439;DHT22;206;48.782;9.252;2023-07-30T02:05:40;20.90;86.40
439;DHT22;206;48.782;9.252;2023-07-30T02:08:06;20.90;85.90
439;DHT22;206;48.782;9.252;2023-07-30T02:10:31;20.90;85.90
439;DHT22;206;48.782;9.252;2023-07-30T02:12:57;20.90;86.40
439;DHT22;206;48.782;9.252;2023-07-30T02:15:22;20.90;85.70
439;DHT22;206;48.782;9.252;2023-07-30T02:17:48;20.90;85.70
439;DHT22;206;48.782;9.252;2023-07-30T02:20:13;21.00;85.30
439;DHT22;206;48.782;9.252;2023-07-30T02:22:39;21.00;85.20
439;DHT22;206;48.782;9.252;2023-07-30T02:25:05;21.00;85.10
439;DHT22;206;48.782;9.252;2023-07-30T02:27:31;21.00;85.30
439;DHT22;206;48.782;9.252;2023-07-30T02:29:56;21.10;85.60
439;DHT22;206;48.782;9.252;2023-07-30T02:32:22;21.10;85.70
439;DHT22;206;48.782;9.252;2023-07-30T02:34:48;21.10;85.40
439;DHT22;206;48.782;9.252;2023-07-30T02:37:13;21.10;84.60
439;DHT22;206;48.782;9.252;2023-07-30T02:39:39;21.00;85.60
439;DHT22;206;48.782;9.252;2023-07-30T02:42:05;20.90;86.00
439;DHT22;206;48.782;9.252;2023-07-30T02:44:30;21.00;86.30
439;DHT22;206;48.782;9.252;2023-07-30T02:46:56;21.00;85.70
439;DHT22;206;48.782;9.252;2023-07-30T02:49:21;21.00;85.60
439;DHT22;206;48.782;9.252;2023-07-30T02:51:47;21.00;83.70
439;DHT22;206;48.782;9.252;2023-07-30T02:54:14;21.00;83.40
439;DHT22;206;48.782;9.252;2023-07-30T02:56:42;20.90;83.90
439;DHT22;206;48.782;9.252;2023-07-30T02:59:08;21.00;83.50
439;DHT22;206;48.782;9.252;2023-07-30T03:01:34;20.90;82.40
439;DHT22;206;48.782;9.252;2023-07-30T03:03:59;20.90;83.20
439;DHT22;206;48.782;9.252;2023-07-30T03:06:25;20.90;83.30
439;DHT22;206;48.782;9.252;2023-07-30T03:08:50;20.80;83.20
439;DHT22;206;48.782;9.252;2023-07-30T03:11:16;20.80;83.20
439;DHT22;206;48.782;9.252;2023-07-30T03:13:41;20.80;83.20
439;DHT22;206;48.782;9.252;2023-07-30T03:16:07;20.80;82.10
439;DHT22;206;48.782;9.252;2023-07-30T03:18:33;20.70;82.40
439;DHT22;206;48.782;9.252;2023-07-30T03:21:03;20.60;83.40
439;DHT22;206;48.782;9.252;2023-07-30T03:23:29;20.60;85.20
439;DHT22;206;48.782;9.252;2023-07-30T03:25:54;20.50;85.40
439;DHT22;206;48.782;9.252;2023-07-30T03:28:20;20.50;84.50
439;DHT22;206;48.782;9.252;2023-07-30T03:30:45;20.50;84.90
439;DHT22;206;48.782;9.252;2023-07-30T03:33:11;20.60;84.60
439;DHT22;206;48.782;9.252;2023-07-30T03:35:36;20.60;83.30
439;DHT22;206;48.782;9.252;2023-07-30T03:38:02;20.70;83.10
439;DHT22;206;48.782;9.252;2023-07-30T03:40:29;20.60;83.00
439;DHT22;206;48.782;9.252;2023-07-30T03:42:54;20.60;81.30
439;DHT22;206;48.782;9.252;2023-07-30T03:45:20;20.50;81.30
439;DHT22;206;48.782;9.252;2023-07-30T03:47:46;20.50;81.00
439;DHT22;206;48.782;9.252;2023-07-30T03:50:11;20.60;82.20
439;DHT22;206;48.782;9.252;2023-07-30T03:52:37;20.60;81.50
439;DHT22;206;48.782;9.252;2023-07-30T03:55:03;20.70;81.70
439;DHT22;206;48.782;9.252;2023-07-30T03:57:28;20.80;82.10
439;DHT22;206;48.782;9.252;2023-07-30T03:59:54;20.70;81.60
439;DHT22;206;48.782;9.252;2023-07-30T04:02:19;20.80;81.40
439;DHT22;206;48.782;9.252;2023-07-30T04:04:45;20.80;80.80
439;DHT22;206;48.782;9.252;2023-07-30T04:07:13;20.80;80.80
439;DHT22;206;48.782;9.252;2023-07-30T04:09:39;20.80;79.20
439;DHT22;206;48.782;9.252;2023-07-30T04:12:05;20.80;80.10
439;DHT22;206;48.782;9.252;2023-07-30T04:14:30;20.80;80.90
439;DHT22;206;48.782;9.252;2023-07-30T04:16:56;20.60;83.10
439;DHT22;206;48.782;9.252;2023-07-30T04:19:22;20.70;83.10
439;DHT22;206;48.782;9.252;2023-07-30T04:21:47;20.70;81.60
439;DHT22;206;48.782;9.252;2023-07-30T04:24:13;20.70;83.10
439;DHT22;206;48.782;9.252;2023-07-30T04:26:38;20.70;82.60
439;DHT22;206;48.782;9.252;2023-07-30T04:29:04;20.70;82.60
439;DHT22;206;48.782;9.252;2023-07-30T04:31:29;20.80;83.20
439;DHT22;206;48.782;9.252;2023-07-30T04:33:55;20.80;82.30
439;DHT22;206;48.782;9.252;2023-07-30T04:36:20;20.80;82.10
439;DHT22;206;48.782;9.252;2023-07-30T04:38:46;20.80;81.60
439;DHT22;206;48.782;9.252;2023-07-30T04:41:12;20.80;81.90
439;DHT22;206;48.782;9.252;2023-07-30T04:43:37;20.80;82.60
439;DHT22;206;48.782;9.252;2023-07-30T04:46:03;20.90;82.40
439;DHT22;206;48.782;9.252;2023-07-30T04:48:28;20.80;83.20
439;DHT22;206;48.782;9.252;2023-07-30T04:50:54;20.80;84.20
439;DHT22;206;48.782;9.252;2023-07-30T04:53:19;20.80;83.60
439;DHT22;206;48.782;9.252;2023-07-30T04:55:46;20.80;82.00
439;DHT22;206;48.782;9.252;2023-07-30T04:58:11;20.70;81.10
439;DHT22;206;48.782;9.252;2023-07-30T05:00:37;20.70;83.10
439;DHT22;206;48.782;9.252;2023-07-30T05:03:03;20.80;83.20
439;DHT22;206;48.782;9.252;2023-07-30T05:05:28;20.80;81.90
439;DHT22;206;48.782;9.252;2023-07-30T05:07:54;20.80;81.70
439;DHT22;206;48.782;9.252;2023-07-30T05:10:20;20.90;81.30
439;DHT22;206;48.782;9.252;2023-07-30T05:12:45;20.90;79.60
439;DHT22;206;48.782;9.252;2023-07-30T05:15:11;20.80;78.20
439;DHT22;206;48.782;9.252;2023-07-30T05:17:36;20.80;78.50
439;DHT22;206;48.782;9.252;2023-07-30T05:20:02;20.90;80.20
439;DHT22;206;48.782;9.252;2023-07-30T05:22:28;20.90;79.10
439;DHT22;206;48.782;9.252;2023-07-30T05:24:53;20.90;79.60
439;DHT22;206;48.782;9.252;2023-07-30T05:27:19;21.00;79.80
439;DHT22;206;48.782;9.252;2023-07-30T05:29:44;21.00;80.20
439;DHT22;206;48.782;9.252;2023-07-30T05:32:10;21.00;79.70
439;DHT22;206;48.782;9.252;2023-07-30T05:34:35;21.00;78.40
439;DHT22;206;48.782;9.252;2023-07-30T05:37:01;21.00;78.10
439;DHT22;206;48.782;9.252;2023-07-30T05:39:27;21.10;77.00
439;DHT22;206;48.782;9.252;2023-07-30T05:41:52;21.10;78.60
439;DHT22;206;48.782;9.252;2023-07-30T05:44:18;21.10;78.90
439;DHT22;206;48.782;9.252;2023-07-30T05:46:43;21.10;78.60
439;DHT22;206;48.782;9.252;2023-07-30T05:49:09;21.10;78.60
439;DHT22;206;48.782;9.252;2023-07-30T05:51:34;21.10;78.10
439;DHT22;206;48.782;9.252;2023-07-30T05:54:00;21.10;76.60
439;DHT22;206;48.782;9.252;2023-07-30T05:56:26;21.10;76.70
439;DHT22;206;48.782;9.252;2023-07-30T05:58:51;21.10;78.60
439;DHT22;206;48.782;9.252;2023-07-30T06:01:17;21.10;81.00
439;DHT22;206;48.782;9.252;2023-07-30T06:03:42;21.20;81.80
439;DHT22;206;48.782;9.252;2023-07-30T06:06:08;21.20;81.50
439;DHT22;206;48.782;9.252;2023-07-30T06:08:34;21.20;83.60
439;DHT22;206;48.782;9.252;2023-07-30T06:11:03;21.20;83.60
439;DHT22;206;48.782;9.252;2023-07-30T06:13:29;21.20;83.60
439;DHT22;206;48.782;9.252;2023-07-30T06:15:54;21.30;81.90
439;DHT22;206;48.782;9.252;2023-07-30T06:18:21;21.40;80.20
439;DHT22;206;48.782;9.252;2023-07-30T06:20:46;21.40;78.90
439;DHT22;206;48.782;9.252;2023-07-30T06:23:12;21.40;77.60
439;DHT22;206;48.782;9.252;2023-07-30T06:25:37;21.50;80.40
439;DHT22;206;48.782;9.252;2023-07-30T06:28:04;21.50;81.30
439;DHT22;206;48.782;9.252;2023-07-30T06:30:31;21.60;80.70
439;DHT22;206;48.782;9.252;2023-07-30T06:32:57;21.60;78.20
439;DHT22;206;48.782;9.252;2023-07-30T06:35:22;21.60;78.00
439;DHT22;206;48.782;9.252;2023-07-30T06:37:49;21.70;76.30
439;DHT22;206;48.782;9.252;2023-07-30T06:40:14;21.60;76.00
439;DHT22;206;48.782;9.252;2023-07-30T06:42:40;21.50;74.50
439;DHT22;206;48.782;9.252;2023-07-30T06:45:06;21.50;77.40
439;DHT22;206;48.782;9.252;2023-07-30T06:47:32;21.60;78.60
439;DHT22;206;48.782;9.252;2023-07-30T06:49:57;21.60;75.90
439;DHT22;206;48.782;9.252;2023-07-30T06:52:23;21.80;74.00
439;DHT22;206;48.782;9.252;2023-07-30T06:54:48;21.90;72.60
439;DHT22;206;48.782;9.252;2023-07-30T06:57:14;22.10;70.50
439;DHT22;206;48.782;9.252;2023-07-30T06:59:40;22.10;71.20
439;DHT22;206;48.782;9.252;2023-07-30T07:02:06;22.20;71.20
439;DHT22;206;48.782;9.252;2023-07-30T07:04:31;22.30;71.60
439;DHT22;206;48.782;9.252;2023-07-30T07:06:57;22.30;71.20
439;DHT22;206;48.782;9.252;2023-07-30T07:09:22;22.30;71.30
439;DHT22;206;48.782;9.252;2023-07-30T07:11:48;22.30;68.90
439;DHT22;206;48.782;9.252;2023-07-30T07:14:14;22.30;67.50
439;DHT22;206;48.782;9.252;2023-07-30T07:16:39;22.20;66.90
439;DHT22;206;48.782;9.252;2023-07-30T07:19:05;22.20;64.80
439;DHT22;206;48.782;9.252;2023-07-30T07:21:30;22.30;64.60
439;DHT22;206;48.782;9.252;2023-07-30T07:23:56;22.30;66.80
439;DHT22;206;48.782;9.252;2023-07-30T07:26:21;22.30;66.90
439;DHT22;206;48.782;9.252;2023-07-30T07:28:47;22.30;68.50
439;DHT22;206;48.782;9.252;2023-07-30T07:31:13;22.30;69.20
439;DHT22;206;48.782;9.252;2023-07-30T07:33:39;22.30;68.90
439;DHT22;206;48.782;9.252;2023-07-30T07:36:06;22.30;69.60
439;DHT22;206;48.782;9.252;2023-07-30T07:38:32;22.30;68.00
439;DHT22;206;48.782;9.252;2023-07-30T07:40:59;22.30;67.50
439;DHT22;206;48.782;9.252;2023-07-30T07:43:24;22.20;66.50
439;DHT22;206;48.782;9.252;2023-07-30T07:45:50;22.10;65.10
439;DHT22;206;48.782;9.252;2023-07-30T07:48:15;22.10;65.80
439;DHT22;206;48.782;9.252;2023-07-30T07:50:41;22.00;65.60
439;DHT22;206;48.782;9.252;2023-07-30T07:53:07;21.90;65.60
439;DHT22;206;48.782;9.252;2023-07-30T07:55:32;21.70;66.80
439;DHT22;206;48.782;9.252;2023-07-30T07:57:58;21.60;68.50
439;DHT22;206;48.782;9.252;2023-07-30T08:00:24;21.50;66.30
439;DHT22;206;48.782;9.252;2023-07-30T08:02:49;21.60;67.30
439;DHT22;206;48.782;9.252;2023-07-30T08:05:15;21.60;67.30
439;DHT22;206;48.782;9.252;2023-07-30T08:07:41;21.70;65.90
439;DHT22;206;48.782;9.252;2023-07-30T08:10:07;21.80;65.10
439;DHT22;206;48.782;9.252;2023-07-30T08:12:33;22.00;65.70
439;DHT22;206;48.782;9.252;2023-07-30T08:14:58;22.20;65.00
439;DHT22;206;48.782;9.252;2023-07-30T08:17:24;22.30;64.60
439;DHT22;206;48.782;9.252;2023-07-30T08:19:50;22.50;65.80
439;DHT22;206;48.782;9.252;2023-07-30T08:22:16;22.50;59.60
439;DHT22;206;48.782;9.252;2023-07-30T08:24:41;22.50;57.70
439;DHT22;206;48.782;9.252;2023-07-30T08:27:07;22.60;58.90
439;DHT22;206;48.782;9.252;2023-07-30T08:29:32;22.70;59.80
439;DHT22;206;48.782;9.252;2023-07-30T08:31:58;22.80;60.90
439;DHT22;206;48.782;9.252;2023-07-30T08:34:23;22.90;55.20
439;DHT22;206;48.782;9.252;2023-07-30T08:36:49;23.10;55.30
439;DHT22;206;48.782;9.252;2023-07-30T08:39:14;23.20;56.70
439;DHT22;206;48.782;9.252;2023-07-30T08:41:40;23.30;51.90
439;DHT22;206;48.782;9.252;2023-07-30T08:44:06;23.40;53.30
439;DHT22;206;48.782;9.252;2023-07-30T08:46:32;23.60;52.10
439;DHT22;206;48.782;9.252;2023-07-30T08:48:58;23.80;51.00
439;DHT22;206;48.782;9.252;2023-07-30T08:51:24;23.90;48.10
439;DHT22;206;48.782;9.252;2023-07-30T08:53:51;24.00;48.60
439;DHT22;206;48.782;9.252;2023-07-30T08:56:17;24.10;41.80
439;DHT22;206;48.782;9.252;2023-07-30T08:58:44;24.10;43.00
439;DHT22;206;48.782;9.252;2023-07-30T09:01:12;24.00;43.60
439;DHT22;206;48.782;9.252;2023-07-30T09:03:40;24.10;43.40
439;DHT22;206;48.782;9.252;2023-07-30T09:06:06;24.10;44.70
439;DHT22;206;48.782;9.252;2023-07-30T09:08:32;24.10;44.00
439;DHT22;206;48.782;9.252;2023-07-30T09:11:09;24.20;43.70
439;DHT22;206;48.782;9.252;2023-07-30T09:13:39;24.20;42.00
439;DHT22;206;48.782;9.252;2023-07-30T09:16:09;24.30;41.50
439;DHT22;206;48.782;9.252;2023-07-30T09:18:43;24.30;41.60
439;DHT22;206;48.782;9.252;2023-07-30T09:21:13;24.40;41.00
439;DHT22;206;48.782;9.252;2023-07-30T09:23:46;24.50;40.10
439;DHT22;206;48.782;9.252;2023-07-30T09:26:13;24.60;39.60
439;DHT22;206;48.782;9.252;2023-07-30T09:28:40;24.60;40.10
439;DHT22;206;48.782;9.252;2023-07-30T09:31:07;24.60;39.50
439;DHT22;206;48.782;9.252;2023-07-30T09:33:34;24.60;40.30
439;DHT22;206;48.782;9.252;2023-07-30T09:36:04;24.60;39.10
439;DHT22;206;48.782;9.252;2023-07-30T09:38:30;24.70;39.60
439;DHT22;206;48.782;9.252;2023-07-30T09:41:02;24.70;35.20
439;DHT22;206;48.782;9.252;2023-07-30T09:43:34;24.50;36.40
439;DHT22;206;48.782;9.252;2023-07-30T09:46:05;24.30;36.30
439;DHT22;206;48.782;9.252;2023-07-30T09:48:32;24.20;35.80
439;DHT22;206;48.782;9.252;2023-07-30T09:51:02;24.10;36.10
439;DHT22;206;48.782;9.252;2023-07-30T09:53:32;24.00;36.00
439;DHT22;206;48.782;9.252;2023-07-30T09:56:04;24.00;37.00
439;DHT22;206;48.782;9.252;2023-07-30T09:58:31;23.90;35.90
439;DHT22;206;48.782;9.252;2023-07-30T10:00:58;23.90;35.90
439;DHT22;206;48.782;9.252;2023-07-30T10:03:26;23.80;35.80
439;DHT22;206;48.782;9.252;2023-07-30T10:05:55;23.70;35.70
439;DHT22;206;48.782;9.252;2023-07-30T10:08:24;23.70;35.70
439;DHT22;206;48.782;9.252;2023-07-30T10:10:52;23.80;35.80
439;DHT22;206;48.782;9.252;2023-07-30T10:13:19;23.90;35.90
439;DHT22;206;48.782;9.252;2023-07-30T10:15:46;23.90;36.60
439;DHT22;206;48.782;9.252;2023-07-30T10:18:12;24.00;34.60
439;DHT22;206;48.782;9.252;2023-07-30T10:20:38;24.00;34.00
439;DHT22;206;48.782;9.252;2023-07-30T10:23:11;24.10;34.10
439;DHT22;206;48.782;9.252;2023-07-30T10:25:48;24.20;32.90
439;DHT22;206;48.782;9.252;2023-07-30T10:28:43;24.30;30.40
439;DHT22;206;48.782;9.252;2023-07-30T10:31:09;24.40;30.90
439;DHT22;206;48.782;9.252;2023-07-30T10:33:51;24.40;29.20
439;DHT22;206;48.782;9.252;2023-07-30T10:39:26;24.60;29.40
439;DHT22;206;48.782;9.252;2023-07-30T10:41:55;24.60;28.30
439;DHT22;206;48.782;9.252;2023-07-30T10:46:50;24.40;27.80
439;DHT22;206;48.782;9.252;2023-07-30T10:49:16;24.30;27.20
439;DHT22;206;48.782;9.252;2023-07-30T10:51:42;24.30;27.90
439;DHT22;206;48.782;9.252;2023-07-30T10:54:07;24.20;26.70
439;DHT22;206;48.782;9.252;2023-07-30T10:56:35;24.30;27.50
439;DHT22;206;48.782;9.252;2023-07-30T10:59:03;24.40;26.80
439;DHT22;206;48.782;9.252;2023-07-30T11:01:31;24.40;27.40
439;DHT22;206;48.782;9.252;2023-07-30T11:03:56;24.50;26.90
439;DHT22;206;48.782;9.252;2023-07-30T11:06:26;24.40;26.80
439;DHT22;206;48.782;9.252;2023-07-30T11:08:52;24.50;26.90
439;DHT22;206;48.782;9.252;2023-07-30T11:11:18;24.50;26.90
439;DHT22;206;48.782;9.252;2023-07-30T11:13:45;24.60;27.00
439;DHT22;206;48.782;9.252;2023-07-30T11:16:12;24.80;27.00
439;DHT22;206;48.782;9.252;2023-07-30T11:18:39;24.90;25.50
439;DHT22;206;48.782;9.252;2023-07-30T11:21:15;25.00;25.10
439;DHT22;206;48.782;9.252;2023-07-30T11:23:45;25.00;25.10
439;DHT22;206;48.782;9.252;2023-07-30T11:26:15;25.10;24.60
439;DHT22;206;48.782;9.252;2023-07-30T11:28:41;25.30;23.90
439;DHT22;206;48.782;9.252;2023-07-30T11:31:13;25.10;24.10
439;DHT22;206;48.782;9.252;2023-07-30T11:33:44;24.90;24.50
439;DHT22;206;48.782;9.252;2023-07-30T11:36:13;24.90;24.60
439;DHT22;206;48.782;9.252;2023-07-30T11:38:39;24.90;25.00
439;DHT22;206;48.782;9.252;2023-07-30T11:41:06;24.90;25.10
439;DHT22;206;48.782;9.252;2023-07-30T11:43:39;24.80;24.90
439;DHT22;206;48.782;9.252;2023-07-30T11:46:15;24.60;25.90
439;DHT22;206;48.782;9.252;2023-07-30T11:48:43;24.60;26.60
439;DHT22;206;48.782;9.252;2023-07-30T11:51:20;24.60;27.00
439;DHT22;206;48.782;9.252;2023-07-30T11:53:58;24.50;27.50
439;DHT22;206;48.782;9.252;2023-07-30T11:56:26;24.50;27.40
439;DHT22;206;48.782;9.252;2023-07-30T11:58:56;24.40;26.80
439;DHT22;206;48.782;9.252;2023-07-30T12:01:24;24.30;26.80
439;DHT22;206;48.782;9.252;2023-07-30T12:03:53;24.40;26.80
439;DHT22;206;48.782;9.252;2023-07-30T12:06:19;24.40;26.80
439;DHT22;206;48.782;9.252;2023-07-30T12:08:44;24.40;26.80
439;DHT22;206;48.782;9.252;2023-07-30T12:11:10;24.30;26.80
439;DHT22;206;48.782;9.252;2023-07-30T12:13:44;24.30;25.90
439;DHT22;206;48.782;9.252;2023-07-30T12:16:11;24.20;25.80
439;DHT22;206;48.782;9.252;2023-07-30T12:18:37;24.10;25.50
439;DHT22;206;48.782;9.252;2023-07-30T12:21:03;24.20;26.20
439;DHT22;206;48.782;9.252;2023-07-30T12:23:32;24.20;26.00
439;DHT22;206;48.782;9.252;2023-07-30T12:25:57;24.40;25.40
439;DHT22;206;48.782;9.252;2023-07-30T12:28:23;24.40;25.10
439;DHT22;206;48.782;9.252;2023-07-30T12:30:49;24.50;25.30
439;DHT22;206;48.782;9.252;2023-07-30T12:33:14;24.50;25.30
439;DHT22;206;48.782;9.252;2023-07-30T12:35:40;24.60;25.50
439;DHT22;206;48.782;9.252;2023-07-30T12:38:05;24.70;24.80
439;DHT22;206;48.782;9.252;2023-07-30T12:40:31;24.70;24.20
439;DHT22;206;48.782;9.252;2023-07-30T12:43:00;24.70;24.10
439;DHT22;206;48.782;9.252;2023-07-30T12:45:27;24.80;24.20
439;DHT22;206;48.782;9.252;2023-07-30T12:47:52;24.80;24.10
439;DHT22;206;48.782;9.252;2023-07-30T12:50:18;24.80;24.30
439;DHT22;206;48.782;9.252;2023-07-30T12:52:43;24.80;25.50
439;DHT22;206;48.782;9.252;2023-07-30T12:55:09;24.80;25.30
439;DHT22;206;48.782;9.252;2023-07-30T12:57:35;24.70;26.10
439;DHT22;206;48.782;9.252;2023-07-30T13:00:01;24.70;25.60
439;DHT22;206;48.782;9.252;2023-07-30T13:02:27;24.60;25.80
439;DHT22;206;48.782;9.252;2023-07-30T13:04:53;24.60;25.30
439;DHT22;206;48.782;9.252;2023-07-30T13:07:18;24.60;26.00
439;DHT22;206;48.782;9.252;2023-07-30T13:09:46;24.70;25.70
439;DHT22;206;48.782;9.252;2023-07-30T13:12:12;24.90;24.80
439;DHT22;206;48.782;9.252;2023-07-30T13:14:38;25.00;23.60
439;DHT22;206;48.782;9.252;2023-07-30T13:17:03;25.00;23.50
439;DHT22;206;48.782;9.252;2023-07-30T13:19:29;25.10;23.00
439;DHT22;206;48.782;9.252;2023-07-30T13:21:56;25.30;22.30
439;DHT22;206;48.782;9.252;2023-07-30T13:24:22;25.40;21.90
439;DHT22;206;48.782;9.252;2023-07-30T13:26:47;25.50;20.10
439;DHT22;206;48.782;9.252;2023-07-30T13:29:13;25.40;20.90
439;DHT22;206;48.782;9.252;2023-07-30T13:31:38;25.50;21.20
439;DHT22;206;48.782;9.252;2023-07-30T13:34:04;25.70;20.20
439;DHT22;206;48.782;9.252;2023-07-30T13:36:30;25.70;19.90
439;DHT22;206;48.782;9.252;2023-07-30T13:38:55;25.80;19.90
439;DHT22;206;48.782;9.252;2023-07-30T13:41:21;25.80;19.20
439;DHT22;206;48.782;9.252;2023-07-30T13:43:46;25.80;19.20
439;DHT22;206;48.782;9.252;2023-07-30T13:46:12;25.60;19.10
439;DHT22;206;48.782;9.252;2023-07-30T13:48:37;25.40;20.00
439;DHT22;206;48.782;9.252;2023-07-30T13:51:03;25.30;20.20
439;DHT22;206;48.782;9.252;2023-07-30T13:53:28;25.30;20.30
439;DHT22;206;48.782;9.252;2023-07-30T13:55:54;25.40;20.30
439;DHT22;206;48.782;9.252;2023-07-30T13:58:19;25.40;20.30
439;DHT22;206;48.782;9.252;2023-07-30T14:00:45;25.40;19.70
439;DHT22;206;48.782;9.252;2023-07-30T14:03:11;25.50;19.10
439;DHT22;206;48.782;9.252;2023-07-30T14:05:39;25.50;19.10
439;DHT22;206;48.782;9.252;2023-07-30T14:08:04;25.40;19.30
439;DHT22;206;48.782;9.252;2023-07-30T14:10:30;25.40;19.50
439;DHT22;206;48.782;9.252;2023-07-30T14:12:56;25.30;19.40
439;DHT22;206;48.782;9.252;2023-07-30T14:15:21;25.20;19.80
439;DHT22;206;48.782;9.252;2023-07-30T14:17:47;25.10;20.70
439;DHT22;206;48.782;9.252;2023-07-30T14:20:13;25.10;21.20
439;DHT22;206;48.782;9.252;2023-07-30T14:22:38;25.10;21.20
439;DHT22;206;48.782;9.252;2023-07-30T14:25:05;25.20;21.30
439;DHT22;206;48.782;9.252;2023-07-30T14:27:30;25.10;20.90
439;DHT22;206;48.782;9.252;2023-07-30T14:29:56;24.90;20.40
439;DHT22;206;48.782;9.252;2023-07-30T14:32:23;25.00;20.90
439;DHT22;206;48.782;9.252;2023-07-30T14:34:49;25.00;20.70
439;DHT22;206;48.782;9.252;2023-07-30T14:37:15;25.10;20.80
439;DHT22;206;48.782;9.252;2023-07-30T14:39:41;25.20;20.10
439;DHT22;206;48.782;9.252;2023-07-30T14:42:07;25.20;19.50
439;DHT22;206;48.782;9.252;2023-07-30T14:44:34;25.20;18.90
439;DHT22;206;48.782;9.252;2023-07-30T14:46:59;25.20;19.50
439;DHT22;206;48.782;9.252;2023-07-30T14:49:26;25.20;18.90
439;DHT22;206;48.782;9.252;2023-07-30T14:51:52;25.20;18.90
439;DHT22;206;48.782;9.252;2023-07-30T14:54:18;25.20;18.90
439;DHT22;206;48.782;9.252;2023-07-30T14:56:43;25.20;19.60
439;DHT22;206;48.782;9.252;2023-07-30T14:59:10;25.20;18.90
439;DHT22;206;48.782;9.252;2023-07-30T15:01:36;25.20;18.90
439;DHT22;206;48.782;9.252;2023-07-30T15:04:01;25.10;18.90
439;DHT22;206;48.782;9.252;2023-07-30T15:06:27;25.10;18.90
439;DHT22;206;48.782;9.252;2023-07-30T15:08:54;24.80;19.10
439;DHT22;206;48.782;9.252;2023-07-30T15:11:20;24.80;18.70
439;DHT22;206;48.782;9.252;2023-07-30T15:13:45;24.80;18.70
439;DHT22;206;48.782;9.252;2023-07-30T15:16:11;24.80;18.70
439;DHT22;206;48.782;9.252;2023-07-30T15:18:36;24.90;18.10
439;DHT22;206;48.782;9.252;2023-07-30T15:21:02;24.80;17.70
439;DHT22;206;48.782;9.252;2023-07-30T15:23:27;24.80;17.70
439;DHT22;206;48.782;9.252;2023-07-30T15:25:53;24.70;17.50
439;DHT22;206;48.782;9.252;2023-07-30T15:28:20;24.70;17.10
439;DHT22;206;48.782;9.252;2023-07-30T15:30:46;24.80;17.50
439;DHT22;206;48.782;9.252;2023-07-30T15:33:11;24.90;17.50
439;DHT22;206;48.782;9.252;2023-07-30T15:35:37;24.90;17.40
439;DHT22;206;48.782;9.252;2023-07-30T15:38:06;24.70;17.20
439;DHT22;206;48.782;9.252;2023-07-30T15:40:32;24.60;17.40
439;DHT22;206;48.782;9.252;2023-07-30T15:42:58;24.60;17.20
439;DHT22;206;48.782;9.252;2023-07-30T15:45:24;24.60;16.70
439;DHT22;206;48.782;9.252;2023-07-30T15:47:49;24.50;16.40
439;DHT22;206;48.782;9.252;2023-07-30T15:50:15;24.30;16.90
439;DHT22;206;48.782;9.252;2023-07-30T15:52:41;24.20;17.00
439;DHT22;206;48.782;9.252;2023-07-30T15:55:07;24.20;16.70
439;DHT22;206;48.782;9.252;2023-07-30T15:57:32;24.10;16.60
439;DHT22;206;48.782;9.252;2023-07-30T15:59:58;24.20;16.80
439;DHT22;206;48.782;9.252;2023-07-30T16:02:27;24.10;16.00
439;DHT22;206;48.782;9.252;2023-07-30T16:04:53;24.10;15.70
439;DHT22;206;48.782;9.252;2023-07-30T16:07:18;24.20;16.10
439;DHT22;206;48.782;9.252;2023-07-30T16:09:44;24.20;16.50
439;DHT22;206;48.782;9.252;2023-07-30T16:12:09;24.30;16.50
439;DHT22;206;48.782;9.252;2023-07-30T16:14:36;24.30;16.10
439;DHT22;206;48.782;9.252;2023-07-30T16:17:01;24.30;16.10
439;DHT22;206;48.782;9.252;2023-07-30T16:19:27;24.40;15.30
439;DHT22;206;48.782;9.252;2023-07-30T16:21:53;24.40;15.20
439;DHT22;206;48.782;9.252;2023-07-30T16:24:20;24.30;14.80
439;DHT22;206;48.782;9.252;2023-07-30T16:26:45;24.30;15.10
439;DHT22;206;48.782;9.252;2023-07-30T16:29:11;24.30;15.50
439;DHT22;206;48.782;9.252;2023-07-30T16:31:36;24.30;15.50
439;DHT22;206;48.782;9.252;2023-07-30T16:34:02;24.40;14.30
439;DHT22;206;48.782;9.252;2023-07-30T16:36:28;24.40;14.10